Denhart, Iowa
Current Conditions -  °F | °C
As of 1:55 PM on Thursday 30 Oct 2014 (Local Time) from KCAV Reporting Station
Overcast Overcast  
Wind Chill: 13°   Ceiling: 9500
Heat Index: 13°   Visibility: 10mi
Dew Point:   Wind: 6mph
Humidity: 51%   Direction: NA
Pressure: 30.03"   Gusts: NA
Location:  42.9524°N, 93.7361°W
Report Text: KCAV 301855Z AUTO VRB05KT 10SM OVC095 13/03 A3003 RMK AO2
Loading
Personal Weather Stations






























Interactive Weather Map
Tropical Storm Tracking
New forecast layout! Learn more

10-Day Weather Forecast

Advertisements
Track Severe Weather on mobile